MacKay, ID (83251)

8:34 PM MST on December 02, 2016 (GMT -0700)
Friedman Memorial | | Change Station
Active Advisory: Winter Storm Watch

Elev 5315 ft 43.50 °N, 114.30 °W | Updated 44 minutes ago

Mostly Cloudy
Mostly Cloudy
21 °F
Feels Like 21 °F
N
0
Wind Variable Wind from North

Today
High -- | Low -- °F
--% Chance of Precip.
Yesterday
High -- | Low -- °F
Precip. -- in
Pressure 30.23 in
Visibility 10.0 miles
Clouds Mostly Cloudy 10000 ft
Dew Point 19 °F
Humidity 93%
Rainfall 0.00 in
Snow Depth Not available.
7:50 AM 4:57 PM
Waxing Crescent, 12% visible
METAR KSUN 030250Z 00000KT 10SM BKN100 M06/M07 A3023
Pressure 30.23 in
Visibility 10.0 miles
Clouds Mostly Cloudy 10000 ft
Dew Point 19 °F
Humidity 93%
Rainfall 0.00 in
Snow Depth Not available.
7:50 AM 4:57 PM
Waxing Crescent, 12% visible
METAR KSUN 030250Z 00000KT 10SM BKN100 M06/M07 A3023

10-Day Weather Forecast

Almanac

Astronomy

Dec. 02, 2016 Rise Set
Actual Time
Civil Twilight
Nautical Twilight
Astronomical Twilight
Moon
Length of Visible Light
Length of Day
Tomorrow will be .
, % of the Moon is Illuminated

Today's Extremes

State Highs State Lows

Community

WunderPhotos

Upload Photos

1,955,406 photos uploaded!

WunderBlog® & News

Nearby

Air Quality

  Air Quality AQ Index Pollutant
Not available.

Snow Depth

Station Depth Elevation

Earthquake Activity

City Distance Mag. Time & Date
Minimum magnitude displayed is 2.5.

Coastal Water Temperatures

Place Temperature

Stations

Nearby Weather Stations

Station Location Temp. Windchill Dew Point Humidity Wind Precip. Elev Updated Type
                   

Watches & Warnings

Winter Storm Watch
Issued: 1:19 PM MST Dec. 2, 2016 – National Weather Service

... Winter Storm Watch in effect from Sunday morning through late
Sunday night...

The National Weather Service in Pocatello has issued a Winter
Storm Watch... which is in effect from Sunday morning through late
Sunday night.

* Impacts... heavy snow to produce difficult driving conditions.
Blowing snow will reduce visibilities below 1/4 statute mile on
mountain passes and roadways.

* Timing... beginning Sunday morning and continuing through the
evening, peaking during daylight hours.

* Snow accumulations... 5 to 8 inches. Areas above 8000 ft should
expect over a foot accumulation.

* Locations... Stanley... Hailey... Ketchum... Galena Summit... Banner
Summit.

Precautionary/preparedness actions...
a Winter Storm Watch means there is a potential for significant
snow, sleet or ice accumulations that may impact travel. Continue
to monitor the latest forecasts.